createdAt,value
2022-09-23T00:00:17.276Z,952.5
2022-09-23T00:01:19.244Z,952.5
2022-09-23T00:02:21.380Z,952.5
2022-09-23T00:03:23.145Z,952.5
2022-09-23T00:04:24.954Z,952.5
2022-09-23T00:05:26.939Z,952.5
2022-09-23T00:06:28.562Z,952.5
2022-09-23T00:07:30.257Z,952.5
2022-09-23T00:08:31.942Z,952.5
2022-09-23T00:09:33.643Z,952.5
2022-09-23T00:10:35.366Z,952.5
2022-09-23T00:11:36.900Z,952.5
2022-09-23T00:12:38.559Z,952.5
2022-09-23T00:13:40.221Z,952.5
2022-09-23T00:14:41.812Z,952.5
2022-09-23T00:15:43.602Z,952.5
2022-09-23T00:16:45.584Z,952.4
2022-09-23T00:17:47.516Z,952.4
2022-09-23T00:18:49.053Z,952.4
2022-09-23T00:19:50.806Z,952.3
2022-09-23T00:20:52.492Z,952.4
2022-09-23T00:21:54.030Z,952.4
2022-09-23T00:22:55.718Z,952.4
2022-09-23T00:23:57.473Z,952.4
2022-09-23T00:24:59.003Z,952.4
2022-09-23T00:26:00.630Z,952.4
2022-09-23T00:27:02.238Z,952.5
2022-09-23T00:28:03.748Z,952.4
2022-09-23T00:29:05.391Z,952.4
2022-09-23T00:30:06.941Z,952.5
2022-09-23T00:31:08.980Z,952.4
2022-09-23T00:32:10.663Z,952.4
2022-09-23T00:33:12.194Z,952.4
2022-09-23T00:34:13.916Z,952.5
2022-09-23T00:35:15.602Z,952.5
2022-09-23T00:36:17.276Z,952.4
2022-09-23T00:37:18.935Z,952.4
2022-09-23T00:38:20.491Z,952.4
2022-09-23T00:39:22.259Z,952.4
2022-09-23T00:40:24.030Z,952.4
2022-09-23T00:41:25.961Z,952.4
2022-09-23T00:42:27.789Z,952.4
2022-09-23T00:43:29.455Z,952.4
2022-09-23T00:44:31.000Z,952.4
2022-09-23T00:45:32.607Z,952.4
2022-09-23T00:46:34.618Z,952.4
2022-09-23T00:47:36.362Z,952.4
2022-09-23T00:48:37.864Z,952.4
2022-09-23T00:49:39.537Z,952.4
2022-09-23T00:50:41.283Z,952.4
2022-09-23T00:51:43.027Z,952.4
2022-09-23T00:52:44.778Z,952.4
2022-09-23T00:53:46.326Z,952.4
2022-09-23T00:54:47.963Z,952.4
2022-09-23T00:55:49.670Z,952.4
2022-09-23T00:56:51.221Z,952.4
2022-09-23T00:57:52.725Z,952.5
2022-09-23T00:58:54.422Z,952.4
2022-09-23T00:59:56.085Z,952.4
2022-09-23T01:00:57.980Z,952.4
2022-09-23T01:01:59.998Z,952.4
2022-09-23T01:03:01.932Z,952.5
2022-09-23T01:04:03.782Z,952.4
2022-09-23T01:05:05.451Z,952.4
2022-09-23T01:06:07.194Z,952.4
2022-09-23T01:07:08.887Z,952.4
2022-09-23T01:08:10.494Z,952.4
2022-09-23T01:09:12.231Z,952.4
2022-09-23T01:10:13.871Z,952.4
2022-09-23T01:11:15.500Z,952.4
2022-09-23T01:12:17.039Z,952.4
2022-09-23T01:13:18.684Z,952.4
2022-09-23T01:14:20.352Z,952.5
2022-09-23T01:15:21.909Z,952.4
2022-09-23T01:16:23.845Z,952.4
2022-09-23T01:17:25.637Z,952.5
2022-09-23T01:18:27.234Z,952.4
2022-09-23T01:19:28.847Z,952.4
2022-09-23T01:20:30.613Z,952.4
2022-09-23T01:21:32.389Z,952.5
2022-09-23T01:22:34.108Z,952.5
2022-09-23T01:23:35.657Z,952.4
2022-09-23T01:24:37.325Z,952.4
2022-09-23T01:25:38.900Z,952.4
2022-09-23T01:26:40.465Z,952.4
2022-09-23T01:27:42.139Z,952.4
2022-09-23T01:28:46.557Z,952.4
2022-09-23T01:29:48.206Z,952.4
2022-09-23T01:30:50.087Z,952.4
2022-09-23T01:31:51.982Z,952.5
2022-09-23T01:32:53.528Z,952.4
2022-09-23T01:33:55.297Z,952.5
2022-09-23T01:34:57.023Z,952.4
2022-09-23T01:35:58.690Z,952.5
2022-09-23T01:37:00.439Z,952.5
2022-09-23T01:38:02.236Z,952.5
2022-09-23T01:39:03.930Z,952.5
2022-09-23T01:40:05.876Z,952.6
2022-09-23T01:41:07.834Z,952.6
2022-09-23T01:42:09.524Z,952.5
2022-09-23T01:43:11.046Z,952.5
2022-09-23T01:44:12.588Z,952.6
2022-09-23T01:45:14.195Z,952.6
2022-09-23T01:46:15.957Z,952.6
2022-09-23T01:47:17.711Z,952.5
2022-09-23T01:48:19.651Z,952.6
2022-09-23T01:49:21.467Z,952.5
2022-09-23T01:50:23.060Z,952.5
2022-09-23T01:51:24.635Z,952.5
2022-09-23T01:52:26.563Z,952.6
2022-09-23T01:53:28.292Z,952.5
2022-09-23T01:54:29.826Z,952.5
2022-09-23T01:55:31.427Z,952.5
2022-09-23T01:56:32.976Z,952.5
2022-09-23T01:57:34.673Z,952.5
2022-09-23T01:58:36.213Z,952.5
2022-09-23T01:59:37.699Z,952.5
2022-09-23T02:00:39.325Z,952.5
2022-09-23T02:01:41.194Z,952.4
2022-09-23T02:02:43.400Z,952.5
2022-09-23T02:03:45.470Z,952.5
2022-09-23T02:04:47.113Z,952.5
2022-09-23T02:05:48.762Z,952.5
2022-09-23T02:06:50.375Z,952.5
2022-09-23T02:07:52.151Z,952.5
2022-09-23T02:08:53.838Z,952.5
2022-09-23T02:09:55.438Z,952.5
2022-09-23T02:10:57.083Z,952.5
2022-09-23T02:11:59.249Z,952.5
2022-09-23T02:13:00.884Z,952.5
2022-09-23T02:14:02.620Z,952.5
2022-09-23T02:15:04.333Z,952.5
2022-09-23T02:16:06.025Z,952.5
2022-09-23T02:17:07.571Z,952.5
2022-09-23T02:18:09.113Z,952.5
2022-09-23T02:19:10.859Z,952.5
2022-09-23T02:20:12.498Z,952.4
2022-09-23T02:21:14.141Z,952.5
2022-09-23T02:22:15.879Z,952.5
2022-09-23T02:23:17.653Z,952.5
2022-09-23T02:24:19.330Z,952.4
2022-09-23T02:25:20.981Z,952.4
2022-09-23T02:26:22.684Z,952.4
2022-09-23T02:27:24.330Z,952.4
2022-09-23T02:28:25.860Z,952.4
2022-09-23T02:29:27.566Z,952.4
2022-09-23T02:30:29.213Z,952.4
2022-09-23T02:31:31.107Z,952.4
2022-09-23T02:32:32.817Z,952.4
2022-09-23T02:33:34.492Z,952.4
2022-09-23T02:34:36.107Z,952.5
2022-09-23T02:35:37.903Z,952.5
2022-09-23T02:36:39.647Z,952.5
2022-09-23T02:37:41.286Z,952.4
2022-09-23T02:38:43.002Z,952.5
2022-09-23T02:39:44.731Z,952.5
2022-09-23T02:40:46.733Z,952.5
2022-09-23T02:41:48.589Z,952.5
2022-09-23T02:42:50.439Z,952.5
2022-09-23T02:43:52.137Z,952.5
2022-09-23T02:44:53.724Z,952.5
2022-09-23T02:45:55.495Z,952.5
2022-09-23T02:46:57.425Z,952.5
2022-09-23T02:47:59.089Z,952.5
2022-09-23T02:49:00.696Z,952.5
2022-09-23T02:50:02.450Z,952.6
2022-09-23T02:51:04.311Z,952.6
2022-09-23T02:52:05.839Z,952.6
2022-09-23T02:53:10.522Z,952.6
2022-09-23T02:54:12.228Z,952.6
2022-09-23T02:55:14.052Z,952.6
2022-09-23T02:56:15.721Z,952.6
2022-09-23T02:57:17.358Z,952.6
2022-09-23T02:58:19.007Z,952.6
2022-09-23T02:59:20.739Z,952.6
2022-09-23T03:00:22.280Z,952.7
2022-09-23T03:01:24.281Z,952.7
2022-09-23T03:02:26.341Z,952.7
2022-09-23T03:03:28.444Z,952.6
2022-09-23T03:04:29.988Z,952.7
2022-09-23T03:05:31.739Z,952.7
2022-09-23T03:06:33.392Z,952.7
2022-09-23T03:07:35.149Z,952.7
2022-09-23T03:08:36.906Z,952.6
2022-09-23T03:09:38.643Z,952.6
2022-09-23T03:10:40.346Z,952.7
2022-09-23T03:11:42.115Z,952.7
2022-09-23T03:12:43.984Z,952.7
2022-09-23T03:13:45.493Z,952.7
2022-09-23T03:14:47.222Z,952.6
2022-09-23T03:15:48.779Z,952.6
2022-09-23T03:16:50.637Z,952.6
2022-09-23T03:17:52.619Z,952.6
2022-09-23T03:18:54.174Z,952.6
2022-09-23T03:19:55.806Z,952.6
2022-09-23T03:20:57.452Z,952.7
2022-09-23T03:21:59.016Z,952.6
2022-09-23T03:23:00.652Z,952.6
2022-09-23T03:24:02.710Z,952.6
2022-09-23T03:25:04.554Z,952.6
2022-09-23T03:26:06.239Z,952.6
2022-09-23T03:27:07.783Z,952.6
2022-09-23T03:28:09.553Z,952.6
2022-09-23T03:29:11.121Z,952.6
2022-09-23T03:30:12.775Z,952.6
2022-09-23T03:31:14.775Z,952.6
2022-09-23T03:32:16.881Z,952.7
2022-09-23T03:33:18.630Z,952.6
2022-09-23T03:34:20.170Z,952.7
2022-09-23T03:35:21.923Z,952.6
2022-09-23T03:36:23.547Z,952.6
2022-09-23T03:37:25.179Z,952.6
2022-09-23T03:38:26.732Z,952.6
2022-09-23T03:39:28.271Z,952.6
2022-09-23T03:40:30.396Z,952.6
2022-09-23T03:41:32.351Z,952.6
2022-09-23T03:42:33.895Z,952.6
2022-09-23T03:43:39.362Z,952.7
2022-09-23T03:44:41.030Z,952.7
2022-09-23T03:45:43.031Z,952.7
2022-09-23T03:46:44.709Z,952.7
2022-09-23T03:47:48.896Z,952.7
2022-09-23T03:48:50.683Z,952.7
2022-09-23T03:49:52.218Z,952.7
2022-09-23T03:50:53.868Z,952.7
2022-09-23T03:51:55.402Z,952.7
2022-09-23T03:52:57.155Z,952.7
2022-09-23T03:53:58.976Z,952.7
2022-09-23T03:55:00.716Z,952.8
2022-09-23T03:56:02.615Z,952.8
2022-09-23T03:57:04.323Z,952.8
2022-09-23T03:58:05.877Z,952.8
2022-09-23T03:59:07.560Z,952.8
2022-09-23T04:00:09.093Z,952.7
2022-09-23T04:01:10.965Z,952.7
2022-09-23T04:02:13.133Z,952.8
2022-09-23T04:03:15.051Z,952.7
2022-09-23T04:04:16.599Z,952.8
2022-09-23T04:05:18.214Z,952.7
2022-09-23T04:06:19.792Z,952.8
2022-09-23T04:07:21.508Z,952.7
2022-09-23T04:08:23.275Z,952.8
2022-09-23T04:09:24.799Z,952.9
2022-09-23T04:10:26.356Z,952.9
2022-09-23T04:11:28.314Z,952.9
2022-09-23T04:12:30.001Z,952.9
2022-09-23T04:13:31.551Z,952.8
2022-09-23T04:14:33.348Z,952.9
2022-09-23T04:15:34.981Z,952.9
2022-09-23T04:16:36.888Z,952.9
2022-09-23T04:17:38.895Z,952.9
2022-09-23T04:18:40.490Z,952.9
2022-09-23T04:19:42.270Z,952.9
2022-09-23T04:20:43.933Z,952.9
2022-09-23T04:21:45.578Z,952.9
2022-09-23T04:22:47.192Z,952.9
2022-09-23T04:23:48.722Z,952.9
2022-09-23T04:24:50.268Z,952.9
2022-09-23T04:25:51.953Z,952.9
2022-09-23T04:26:53.818Z,953
2022-09-23T04:27:55.496Z,952.9
2022-09-23T04:28:57.060Z,952.9
2022-09-23T04:29:58.605Z,952.9
2022-09-23T04:31:00.287Z,952.9
2022-09-23T04:32:01.810Z,953
2022-09-23T04:33:03.431Z,952.9
2022-09-23T04:34:05.200Z,953
2022-09-23T04:35:06.770Z,953
2022-09-23T04:36:08.517Z,953
2022-09-23T04:37:10.073Z,953
2022-09-23T04:38:11.681Z,953
2022-09-23T04:39:13.342Z,953
2022-09-23T04:40:15.104Z,953
2022-09-23T04:41:16.695Z,953
2022-09-23T04:42:18.492Z,953.1
2022-09-23T04:43:20.334Z,953.1
2022-09-23T04:44:21.876Z,953.1
2022-09-23T04:45:23.461Z,953.1
2022-09-23T04:46:25.448Z,953.1
2022-09-23T04:47:27.224Z,953.1
2022-09-23T04:48:28.868Z,953.2
2022-09-23T04:49:30.529Z,953.2
2022-09-23T04:50:32.156Z,953.2
2022-09-23T04:51:33.768Z,953.2
2022-09-23T04:52:35.303Z,953.2
2022-09-23T04:53:37.108Z,953.2
2022-09-23T04:54:38.788Z,953.3
2022-09-23T04:55:40.349Z,953.2
2022-09-23T04:56:41.974Z,953.2
2022-09-23T04:57:43.787Z,953.3
2022-09-23T04:58:45.473Z,953.3
2022-09-23T04:59:47.133Z,953.2
2022-09-23T05:00:49.037Z,953.2
2022-09-23T05:01:51.171Z,953.2
2022-09-23T05:02:52.871Z,953.2
2022-09-23T05:03:54.468Z,953.2
2022-09-23T05:04:56.114Z,953.2
2022-09-23T05:05:57.658Z,953.2
2022-09-23T05:07:03.893Z,953.2
2022-09-23T05:08:05.453Z,953.2
2022-09-23T05:09:07.793Z,953.2
2022-09-23T05:10:09.708Z,953.3
2022-09-23T05:11:11.354Z,953.3
2022-09-23T05:12:12.958Z,953.3
2022-09-23T05:13:14.709Z,953.3
2022-09-23T05:14:16.455Z,953.3
2022-09-23T05:15:18.002Z,953.3
2022-09-23T05:16:19.950Z,953.3
2022-09-23T05:17:21.790Z,953.3
2022-09-23T05:18:23.438Z,953.3
2022-09-23T05:19:25.136Z,953.3
2022-09-23T05:20:29.543Z,953.3
2022-09-23T05:21:31.119Z,953.3
2022-09-23T05:22:32.732Z,953.3
2022-09-23T05:23:34.327Z,953.3
2022-09-23T05:24:35.971Z,953.3
2022-09-23T05:25:38.832Z,953.3
2022-09-23T05:26:40.519Z,953.3
2022-09-23T05:27:42.323Z,953.3
2022-09-23T05:28:44.100Z,953.3
2022-09-23T05:29:45.925Z,953.4
2022-09-23T05:30:47.694Z,953.4
2022-09-23T05:31:49.716Z,953.4
2022-09-23T05:32:51.786Z,953.4
2022-09-23T05:33:53.534Z,953.4
2022-09-23T05:34:55.041Z,953.4
2022-09-23T05:35:56.592Z,953.4
2022-09-23T05:37:00.860Z,953.4
2022-09-23T05:38:02.432Z,953.4
2022-09-23T05:39:04.080Z,953.4
2022-09-23T05:40:06.027Z,953.4
2022-09-23T05:41:07.723Z,953.4
2022-09-23T05:42:09.259Z,953.4
2022-09-23T05:43:10.892Z,953.4
2022-09-23T05:44:12.677Z,953.4
2022-09-23T05:45:14.406Z,953.3
2022-09-23T05:46:16.432Z,953.3
2022-09-23T05:47:18.306Z,953.3
2022-09-23T05:48:19.941Z,953.4
2022-09-23T05:49:59.858Z,953.3
2022-09-23T05:51:02.433Z,953.3
2022-09-23T05:52:03.963Z,953.3
2022-09-23T05:53:05.504Z,953.3
2022-09-23T05:54:07.688Z,953.3
2022-09-23T05:55:09.613Z,953.3
2022-09-23T05:56:11.288Z,953.3
2022-09-23T05:57:12.934Z,953.3
2022-09-23T05:58:14.497Z,953.3
2022-09-23T05:59:16.278Z,953.3
2022-09-23T06:00:17.993Z,953.3
2022-09-23T06:01:19.753Z,953.3
2022-09-23T06:02:21.765Z,953.3
2022-09-23T06:03:23.761Z,953.3
2022-09-23T06:04:25.592Z,953.3
2022-09-23T06:05:27.130Z,953.3
2022-09-23T06:06:28.785Z,953.2
2022-09-23T06:07:30.380Z,953.2
2022-09-23T06:08:31.930Z,953.2
2022-09-23T06:09:39.776Z,953.2
2022-09-23T06:10:41.328Z,953.2
2022-09-23T06:11:42.957Z,953.2
2022-09-23T06:12:44.696Z,953.2
2022-09-23T06:13:46.446Z,953.2
2022-09-23T06:14:48.199Z,953.2
2022-09-23T06:15:50.208Z,953.2
2022-09-23T06:16:52.043Z,953.2
2022-09-23T06:17:53.637Z,953.2
2022-09-23T06:18:55.174Z,953.2
2022-09-23T06:19:59.473Z,953.2
2022-09-23T06:21:01.140Z,953.2
2022-09-23T06:22:02.704Z,953.2
2022-09-23T06:23:10.737Z,953.2
2022-09-23T06:24:26.059Z,953.2
2022-09-23T06:25:33.056Z,953.2
2022-09-23T06:26:34.658Z,953.2
2022-09-23T06:27:36.309Z,953.2
2022-09-23T06:28:38.026Z,953.1
2022-09-23T06:29:39.801Z,953.2
2022-09-23T06:30:41.549Z,953.2
2022-09-23T06:31:43.830Z,953.2
2022-09-23T06:32:45.703Z,953.1
2022-09-23T06:33:47.231Z,953.1
2022-09-23T06:34:52.506Z,953.1
2022-09-23T06:36:00.400Z,953.1
2022-09-23T06:37:20.910Z,953.1
2022-09-23T06:38:23.582Z,953.1
2022-09-23T06:39:25.184Z,953.1
2022-09-23T06:40:27.237Z,953.1
2022-09-23T06:41:29.071Z,953.1
2022-09-23T06:42:30.773Z,953.1
2022-09-23T06:43:32.506Z,953.1
2022-09-23T06:44:34.159Z,953.1
2022-09-23T06:45:35.775Z,953.1
2022-09-23T06:46:37.874Z,953.1
2022-09-23T06:47:39.864Z,953.1
2022-09-23T06:48:46.767Z,953.2
2022-09-23T06:49:48.320Z,953.1
2022-09-23T06:50:49.924Z,953.2
2022-09-23T06:51:51.511Z,953.2
2022-09-23T06:52:53.111Z,953.2
2022-09-23T06:53:54.688Z,953.2
2022-09-23T06:54:56.250Z,953.2
2022-09-23T06:55:57.926Z,953.2
2022-09-23T06:56:59.650Z,953.2
2022-09-23T06:58:01.368Z,953.3
2022-09-23T06:59:02.990Z,953.2
2022-09-23T07:00:04.678Z,953.2
2022-09-23T07:01:06.417Z,953.2
2022-09-23T07:02:08.809Z,953.3
2022-09-23T07:03:10.693Z,953.3
2022-09-23T07:04:12.199Z,953.3
2022-09-23T07:05:13.914Z,953.3
2022-09-23T07:06:15.762Z,953.4
2022-09-23T07:07:17.419Z,953.4
2022-09-23T07:08:18.957Z,953.3
2022-09-23T07:09:20.581Z,953.4
2022-09-23T07:10:22.121Z,953.4
2022-09-23T07:11:23.808Z,953.4
2022-09-23T07:12:25.443Z,953.4
2022-09-23T07:13:26.988Z,953.4
2022-09-23T07:14:28.632Z,953.4
2022-09-23T07:15:30.180Z,953.5
2022-09-23T07:16:31.987Z,953.5
2022-09-23T07:17:33.886Z,953.5
2022-09-23T07:18:37.830Z,953.5
2022-09-23T07:19:39.476Z,953.5
2022-09-23T07:20:41.133Z,953.5
2022-09-23T07:21:42.814Z,953.5
2022-09-23T07:22:44.348Z,953.5
2022-09-23T07:23:45.954Z,953.5
2022-09-23T07:24:47.689Z,953.5
2022-09-23T07:25:49.243Z,953.5
2022-09-23T07:26:50.937Z,953.4
2022-09-23T07:27:52.546Z,953.5
2022-09-23T07:28:54.308Z,953.5
2022-09-23T07:29:55.873Z,953.5
2022-09-23T07:31:01.531Z,953.5
2022-09-23T07:32:14.757Z,953.5
2022-09-23T07:33:33.582Z,953.5
2022-09-23T07:34:35.709Z,953.5
2022-09-23T07:35:37.223Z,953.6
2022-09-23T07:36:38.777Z,953.6
2022-09-23T07:37:40.358Z,953.6
2022-09-23T07:38:46.188Z,953.6
2022-09-23T07:39:47.851Z,953.6
2022-09-23T07:40:49.766Z,953.6
2022-09-23T07:41:51.491Z,953.6
2022-09-23T07:42:53.082Z,953.6
2022-09-23T07:43:54.626Z,953.6
2022-09-23T07:44:56.286Z,953.6
2022-09-23T07:45:58.147Z,953.6
2022-09-23T07:46:59.819Z,953.6
2022-09-23T07:48:01.358Z,953.6
2022-09-23T07:49:03.210Z,953.6
2022-09-23T07:50:04.917Z,953.5
2022-09-23T07:51:06.664Z,953.6
2022-09-23T07:52:08.322Z,953.6
2022-09-23T07:53:10.135Z,953.6
2022-09-23T07:54:11.782Z,953.6
2022-09-23T07:55:21.239Z,953.6
2022-09-23T07:56:23.000Z,953.6
2022-09-23T07:57:24.586Z,953.5
2022-09-23T07:58:26.266Z,953.5
2022-09-23T07:59:27.887Z,953.5
2022-09-23T08:00:29.570Z,953.5
2022-09-23T08:01:31.515Z,953.5
2022-09-23T08:02:33.733Z,953.6
2022-09-23T08:03:35.570Z,953.6
2022-09-23T08:04:37.482Z,953.5
2022-09-23T08:05:39.301Z,953.6
2022-09-23T08:06:40.948Z,953.6
2022-09-23T08:07:42.623Z,953.6
2022-09-23T08:08:44.269Z,953.6
2022-09-23T08:09:45.899Z,953.6
2022-09-23T08:10:47.546Z,953.6
2022-09-23T08:11:49.194Z,953.6
2022-09-23T08:12:50.742Z,953.6
2022-09-23T08:13:52.261Z,953.6
2022-09-23T08:14:53.920Z,953.6
2022-09-23T08:15:56.189Z,953.6
2022-09-23T08:16:58.029Z,953.5
2022-09-23T08:17:59.637Z,953.5
2022-09-23T08:19:02.020Z,953.5
2022-09-23T08:20:04.167Z,953.5
2022-09-23T08:21:06.027Z,953.5
2022-09-23T08:22:07.693Z,953.5
2022-09-23T08:23:09.231Z,953.5
2022-09-23T08:24:10.843Z,953.5
2022-09-23T08:25:12.523Z,953.5
2022-09-23T08:27:21.849Z,953.5
2022-09-23T08:28:23.435Z,953.5
2022-09-23T08:29:25.000Z,953.4
2022-09-23T08:30:26.549Z,953.4
2022-09-23T08:31:28.478Z,953.4
2022-09-23T08:32:30.172Z,953.4
2022-09-23T08:33:31.926Z,953.4
2022-09-23T08:34:33.576Z,953.4
2022-09-23T08:35:35.272Z,953.4
2022-09-23T08:36:37.118Z,953.4
2022-09-23T08:37:38.668Z,953.4
2022-09-23T08:38:40.409Z,953.4
2022-09-23T08:39:42.032Z,953.4
2022-09-23T08:40:43.810Z,953.4
2022-09-23T08:41:45.498Z,953.4
2022-09-23T08:42:47.029Z,953.4
2022-09-23T08:43:48.743Z,953.4
2022-09-23T08:44:50.386Z,953.4
2022-09-23T08:45:52.070Z,953.4
2022-09-23T08:46:53.742Z,953.4
2022-09-23T08:47:55.314Z,953.4
2022-09-23T08:48:56.927Z,953.4
2022-09-23T08:49:58.477Z,953.4
2022-09-23T08:51:00.353Z,953.4
2022-09-23T08:52:02.049Z,953.4
2022-09-23T08:53:03.613Z,953.4
2022-09-23T08:54:05.324Z,953.4
2022-09-23T08:55:07.456Z,953.4
2022-09-23T08:56:09.010Z,953.3
2022-09-23T08:57:10.633Z,953.4
2022-09-23T08:58:26.786Z,953.4
2022-09-23T08:59:28.933Z,953.4
2022-09-23T09:00:30.489Z,953.4
2022-09-23T09:01:32.367Z,953.4
2022-09-23T09:02:34.374Z,953.4
2022-09-23T09:03:36.160Z,953.3
2022-09-23T09:04:37.714Z,953.3
2022-09-23T09:05:39.260Z,953.3
2022-09-23T09:07:00.111Z,953.3
2022-09-23T09:08:33.546Z,953.3
2022-09-23T09:09:35.134Z,953.3
2022-09-23T09:10:36.683Z,953.3
2022-09-23T09:11:38.223Z,953.3
2022-09-23T09:12:39.765Z,953.3
2022-09-23T09:13:41.304Z,953.3
2022-09-23T09:14:42.884Z,953.3
2022-09-23T09:15:44.677Z,953.3
2022-09-23T09:17:01.755Z,953.3
2022-09-23T09:18:03.628Z,953.4
2022-09-23T09:19:05.318Z,953.4
2022-09-23T09:20:07.052Z,953.4
2022-09-23T09:21:08.732Z,953.4
2022-09-23T09:22:10.376Z,953.4
2022-09-23T09:23:12.139Z,953.4
2022-09-23T09:24:13.778Z,953.4
2022-09-23T09:25:15.465Z,953.4
2022-09-23T09:26:17.161Z,953.4
2022-09-23T09:27:18.771Z,953.3
2022-09-23T09:28:20.324Z,953.4
2022-09-23T09:29:36.873Z,953.3
2022-09-23T09:30:39.231Z,953.4
2022-09-23T09:31:41.122Z,953.3
2022-09-23T09:32:42.678Z,953.4
2022-09-23T09:33:47.045Z,953.3
2022-09-23T09:34:48.602Z,953.3
2022-09-23T09:35:50.145Z,953.3
2022-09-23T09:36:51.866Z,953.3
2022-09-23T09:37:54.175Z,953.3
2022-09-23T09:38:55.959Z,953.3
2022-09-23T09:39:57.525Z,953.3
2022-09-23T09:40:59.071Z,953.3
2022-09-23T09:42:00.711Z,953.3
2022-09-23T09:43:02.299Z,953.3
2022-09-23T09:44:03.987Z,953.3
2022-09-23T09:45:05.586Z,953.3
2022-09-23T09:46:07.209Z,953.4
2022-09-23T09:47:08.745Z,953.4
2022-09-23T09:48:10.288Z,953.4
2022-09-23T09:49:11.855Z,953.3
2022-09-23T09:50:13.465Z,953.3
2022-09-23T09:51:15.103Z,953.3
2022-09-23T09:52:16.687Z,953.3
2022-09-23T09:53:18.347Z,953.3
2022-09-23T09:54:20.004Z,953.3
2022-09-23T09:55:21.553Z,953.3
2022-09-23T09:56:23.165Z,953.2
2022-09-23T09:57:24.737Z,953.3
2022-09-23T09:58:26.352Z,953.3
2022-09-23T09:59:27.928Z,953.2
2022-09-23T10:00:29.459Z,953.3
2022-09-23T10:01:31.278Z,953.3
2022-09-23T10:02:33.138Z,953.3
2022-09-23T10:03:34.787Z,953.3
2022-09-23T10:04:36.572Z,953.4
2022-09-23T10:05:38.321Z,953.3
2022-09-23T10:06:39.925Z,953.3
2022-09-23T10:07:41.768Z,953.3
2022-09-23T10:08:43.425Z,953.3
2022-09-23T10:09:45.154Z,953.3
2022-09-23T10:10:46.728Z,953.2
2022-09-23T10:11:48.266Z,953.2
2022-09-23T10:12:49.892Z,953.2
2022-09-23T10:13:51.453Z,953.2
2022-09-23T10:14:53.024Z,953.2
2022-09-23T10:15:54.759Z,953.2
2022-09-23T10:16:56.804Z,953.2
2022-09-23T10:17:58.803Z,953.1
2022-09-23T10:19:00.825Z,953.2
2022-09-23T10:20:02.380Z,953.1
2022-09-23T10:21:04.010Z,953.1
2022-09-23T10:22:05.626Z,953.1
2022-09-23T10:23:07.249Z,953.1
2022-09-23T10:24:08.916Z,953.2
2022-09-23T10:25:10.502Z,953.1
2022-09-23T10:26:12.079Z,953.1
2022-09-23T10:27:13.656Z,953.1
2022-09-23T10:28:15.271Z,953
2022-09-23T10:29:16.825Z,953
2022-09-23T10:30:18.372Z,953
2022-09-23T10:31:19.911Z,953
2022-09-23T10:32:21.474Z,953
2022-09-23T10:33:23.113Z,953
2022-09-23T10:34:24.671Z,953
2022-09-23T10:35:26.282Z,953
2022-09-23T10:36:28.014Z,953
2022-09-23T10:37:29.587Z,953
2022-09-23T10:38:31.198Z,953
2022-09-23T10:39:32.845Z,953
2022-09-23T10:40:34.676Z,953
2022-09-23T10:41:36.403Z,953
2022-09-23T10:42:38.022Z,953
2022-09-23T10:43:39.589Z,952.9
2022-09-23T10:44:41.204Z,952.9
2022-09-23T10:45:43.880Z,952.9
2022-09-23T10:46:45.723Z,952.9
2022-09-23T10:47:47.280Z,952.9
2022-09-23T10:48:48.864Z,952.9
2022-09-23T10:49:50.404Z,953
2022-09-23T10:50:52.014Z,953
2022-09-23T10:51:53.579Z,953
2022-09-23T10:52:55.120Z,952.9
2022-09-23T10:53:56.763Z,952.9
2022-09-23T10:54:58.592Z,952.9
2022-09-23T10:56:00.187Z,952.9
2022-09-23T10:57:02.065Z,952.8
2022-09-23T10:58:03.773Z,952.8
2022-09-23T10:59:05.374Z,952.8
2022-09-23T11:00:07.018Z,952.8
2022-09-23T11:01:08.785Z,952.8
2022-09-23T11:02:10.561Z,952.8
2022-09-23T11:03:12.130Z,952.9
2022-09-23T11:04:14.964Z,952.8
2022-09-23T11:05:16.825Z,952.7
2022-09-23T11:06:18.647Z,952.8
2022-09-23T11:07:20.423Z,952.8
2022-09-23T11:08:21.971Z,952.7
2022-09-23T11:09:23.719Z,952.7
2022-09-23T11:10:47.169Z,952.7
2022-09-23T11:11:48.998Z,952.7
2022-09-23T11:12:50.679Z,952.6
2022-09-23T11:13:55.193Z,952.6
2022-09-23T11:14:56.945Z,952.7
2022-09-23T11:15:58.597Z,952.7
2022-09-23T11:17:00.355Z,952.6
2022-09-23T11:18:02.293Z,952.6
2022-09-23T11:19:06.719Z,952.5
2022-09-23T11:20:08.408Z,952.5
2022-09-23T11:21:10.041Z,952.6
2022-09-23T11:22:11.828Z,952.6
2022-09-23T11:23:13.497Z,952.6
2022-09-23T11:24:15.140Z,952.6
2022-09-23T11:25:16.987Z,952.6
2022-09-23T11:26:18.952Z,952.6
2022-09-23T11:27:20.551Z,952.6
2022-09-23T11:28:22.214Z,952.5
2022-09-23T11:29:23.757Z,952.6
2022-09-23T11:30:25.507Z,952.6
2022-09-23T11:31:27.267Z,952.6
2022-09-23T11:32:28.882Z,952.6
2022-09-23T11:33:30.646Z,952.6
2022-09-23T11:34:32.263Z,952.5
2022-09-23T11:35:33.764Z,952.5
2022-09-23T11:36:35.655Z,952.5
2022-09-23T11:37:37.227Z,952.5
2022-09-23T11:38:38.780Z,952.4
2022-09-23T11:39:40.415Z,952.4
2022-09-23T11:40:47.061Z,952.4
2022-09-23T11:41:49.051Z,952.4
2022-09-23T11:42:50.782Z,952.4
2022-09-23T11:43:52.961Z,952.3
2022-09-23T11:44:54.506Z,952.3
2022-09-23T11:45:56.355Z,952.3
2022-09-23T11:46:58.153Z,952.4
2022-09-23T11:47:59.751Z,952.3
2022-09-23T11:49:01.476Z,952.3
2022-09-23T11:50:03.025Z,952.3
2022-09-23T11:51:04.678Z,952.3
2022-09-23T11:52:06.332Z,952.3
2022-09-23T11:53:07.913Z,952.4
2022-09-23T11:54:09.595Z,952.3
2022-09-23T11:55:23.381Z,952.3
2022-09-23T11:56:38.023Z,952.3
2022-09-23T11:57:49.992Z,952.3
2022-09-23T11:59:00.131Z,952.3
2022-09-23T12:00:01.928Z,952.3
2022-09-23T12:01:03.564Z,952.3
2022-09-23T12:02:22.342Z,952.3
2022-09-23T12:03:45.412Z,952.4
2022-09-23T12:04:58.973Z,952.4
2022-09-23T12:06:01.448Z,952.4
2022-09-23T12:07:03.297Z,952.4
2022-09-23T12:08:05.104Z,952.4
2022-09-23T12:09:06.641Z,952.3
2022-09-23T12:10:08.192Z,952.3
2022-09-23T12:11:09.761Z,952.3
2022-09-23T12:12:11.383Z,952.3
2022-09-23T12:13:13.185Z,952.3
2022-09-23T12:14:14.928Z,952.2
2022-09-23T12:15:16.619Z,952.2
2022-09-23T12:16:18.435Z,952.2
2022-09-23T12:17:20.231Z,952.3
2022-09-23T12:18:23.712Z,952.3
2022-09-23T12:19:25.266Z,952.2
2022-09-23T12:20:26.883Z,952.2
2022-09-23T12:21:51.762Z,952.2
2022-09-23T12:22:53.435Z,952.2
2022-09-23T12:23:54.969Z,952.3
2022-09-23T12:24:56.535Z,952.2
2022-09-23T12:25:58.164Z,952.2
2022-09-23T12:26:59.694Z,952.2
2022-09-23T12:28:01.293Z,952.2
2022-09-23T12:29:03.001Z,952.3
2022-09-23T12:30:04.680Z,952.3
2022-09-23T12:31:06.822Z,952.3
2022-09-23T12:32:08.590Z,952.3
2022-09-23T12:33:10.151Z,952.3
2022-09-23T12:34:11.926Z,952.3
2022-09-23T12:35:13.696Z,952.3
2022-09-23T12:36:15.278Z,952.3
2022-09-23T12:37:16.832Z,952.3
2022-09-23T12:38:18.414Z,952.3
2022-09-23T12:39:20.039Z,952.3
2022-09-23T12:40:21.944Z,952.3
2022-09-23T12:41:23.806Z,952.3
2022-09-23T12:42:31.741Z,952.3
2022-09-23T12:43:33.455Z,952.3
2022-09-23T12:44:35.260Z,952.3
2022-09-23T12:45:37.476Z,952.3
2022-09-23T12:46:39.467Z,952.3
2022-09-23T12:47:40.970Z,952.3
2022-09-23T12:48:42.745Z,952.3
2022-09-23T12:49:44.293Z,952.3
2022-09-23T12:50:45.947Z,952.3
2022-09-23T12:51:47.597Z,952.3
2022-09-23T12:52:49.243Z,952.3
2022-09-23T12:53:50.849Z,952.3
2022-09-23T12:54:52.741Z,952.3
2022-09-23T12:55:54.558Z,952.2
2022-09-23T12:56:56.413Z,952.3
2022-09-23T12:57:57.968Z,952.3
2022-09-23T12:58:59.826Z,952.3
2022-09-23T13:00:01.578Z,952.3
2022-09-23T13:01:03.729Z,952.3
2022-09-23T13:02:05.872Z,952.3
2022-09-23T13:03:07.681Z,952.3
2022-09-23T13:04:09.231Z,952.3
2022-09-23T13:05:11.118Z,952.3
2022-09-23T13:06:12.774Z,952.3
2022-09-23T13:07:14.424Z,952.3
2022-09-23T13:08:16.072Z,952.3
2022-09-23T13:09:17.794Z,952.3
2022-09-23T13:10:19.650Z,952.3
2022-09-23T13:11:21.380Z,952.3
2022-09-23T13:12:23.115Z,952.3
2022-09-23T13:13:24.786Z,952.3
2022-09-23T13:14:28.089Z,952.3
2022-09-23T13:15:32.852Z,952.2
2022-09-23T13:16:34.775Z,952.3
2022-09-23T13:17:36.659Z,952.3
2022-09-23T13:18:38.354Z,952.3
2022-09-23T13:19:40.217Z,952.3
2022-09-23T13:20:41.933Z,952.3
2022-09-23T13:21:43.608Z,952.3
2022-09-23T13:22:45.350Z,952.3
2022-09-23T13:23:47.003Z,952.3
2022-09-23T13:24:48.641Z,952.3